Whitesville, NY

6:02 AM EDT on July 28, 2014 (GMT -0400)
Cattaraugus County-Olean (KOLE) Elev 2136 ft | 42.24 °N, 78.37 °W | Change Station
Active Advisory: Areal Flood Watch

Current weather conditions updated 7 minutes ago

Overcast
Overcast
57 °F
Feels Like 57 °F
N
0
Wind Variable Wind from North

Today is forecast to be Much Cooler than yesterday. Rain with a few rumbles of thunder.

Today
High -- | Low -- °F
--% Chance of Precip.
Yesterday
High -- | Low -- °F
Precip. -- in
6:00 AM 8:34 PM
New Moon, 2% visible
Pressure 29.61 in
Visibility 0.8 miles
Clouds Mostly Cloudy 100 ft
Overcast 2800 ft
Dew Point 57 °F
Humidity 100%
Rainfall 0.00 in
Snow Depth Not available.
UV 0 out of 12
Pollen 5.20 out of 12
PM2.5 Good
Flu Activity Not available.
METAR KOLE 280955Z AUTO 00000KT 3/4SM BR BKN001 OVC028 14/14 A2961 RMK AO2 LTG DSNT SW AND W

More Conditions Fewer Conditions

Pressure 29.61 in
Visibility 0.8 miles
Clouds Mostly Cloudy 100 ft
Overcast 2800 ft
Dew Point 57 °F
Humidity 100%
Rainfall 0.00 in
Snow Depth Not available.
UV 0 out of 12
Pollen 5.20 out of 12
PM2.5 Good
Flu Activity Not available.
METAR KOLE 280955Z AUTO 00000KT 3/4SM BR BKN001 OVC028 14/14 A2961 RMK AO2 LTG DSNT SW AND W

More Conditions Fewer Conditions

10-Day Weather Forecast

Almanac

Astronomy

Jul. 28, 2014 Rise Set
Actual Time 6:00 AM EDT 8:34 PM EDT
Civil Twilight 5:28 AM EDT 9:06 PM EDT
Nautical Twilight 4:48 AM EDT 9:45 PM EDT
Astronomical Twilight 4:03 AM EDT 10:30 PM EDT
Moon 7:42 AM EDT 9:11 PM EDT
Length of Visible Light 15h 37m
Length of Day
14h 33m
Tomorrow will be 2m 2s shorter.
New Moon, 2% of the Moon is Illuminated
Today
New Moon
Aug 3
First Quarter
Aug 10
Full
Aug 17
Last Quarter
Aug 25
New

Today's Extremes

State Highs State Lows

Community

WunderPhotos

Upload Photos

1,738,289 photos uploaded!

Nearby

Air Quality

  Air Quality AQ Index Pollutant
Yesterday Moderate
PM2.5
Yesterday Good
OZONE
Current Good
PM2.5
Monday Good
OZONE
Monday Good
PM2.5

Snow Depth

Station Depth Elevation
No new snow has been reported.

Earthquake Activity

City Distance Mag. Time & Date
No recent earthquake activity has been reported nearby.
Minimum magnitude displayed is 2.5.

Coastal Water Temperatures

Place Temperature
No Stations Reporting

Nearby Weather Stations

Station Location Temp. Dew Point Humidity Wind Precip. Elev Updated Type
Ardachy Farm, Alfred Station, NY 61.0 °F 61 °F 99% SW  at  0.7 mph 0.00 in / hr 1877 ft 6:01 AM EDT Normal
Academy Corners, Deerfield Township, PA, Knoxville, PA 62.7 °F 61 °F 95% South  at  0.0 mph 0.00 in / hr 1224 ft 6:00 AM EDT Rapid Fire
Sweden Valley, Coudersport, PA 61.9 °F 61 °F 98% SW  at  0.7 mph 0.00 in / hr 1796 ft 6:00 AM EDT Normal
HADS ALMOND LAKE NEAR HORNELL NY, Hornell, NY 63 °F - - North  at  - 0.00 in / hr 1325 ft 5:00 AM EDT MADIS

Show More Stations Show Fewer Stations